createdAt,value
2023-03-18T00:00:36.167Z,99807.38
2023-03-18T00:03:03.905Z,99813.50
2023-03-18T00:05:32.464Z,99816.19
2023-03-18T00:08:00.209Z,99816.44
2023-03-18T00:10:29.833Z,99824.44
2023-03-18T00:12:58.817Z,99823.91
2023-03-18T00:15:26.564Z,99829.25
2023-03-18T00:17:54.539Z,99828.19
2023-03-18T00:20:29.791Z,99836.69
2023-03-18T00:22:58.235Z,99834.28
2023-03-18T00:25:25.915Z,99836.38
2023-03-18T00:27:55.528Z,99836.66
2023-03-18T00:30:23.882Z,99849.50
2023-03-18T00:32:51.619Z,99855.88
2023-03-18T00:35:19.913Z,99859.06
2023-03-18T00:37:48.626Z,99854.22
2023-03-18T00:40:20.872Z,99858.47
2023-03-18T00:42:50.606Z,99848.84
2023-03-18T00:45:19.772Z,99863.00
2023-03-18T00:47:48.961Z,99864.81
2023-03-18T00:50:17.164Z,99864.81
2023-03-18T00:52:45.139Z,99870.66
2023-03-18T00:55:13.396Z,99869.03
2023-03-18T00:57:41.199Z,99855.13
2023-03-18T01:00:11.459Z,99865.84
2023-03-18T01:02:41.739Z,99875.97
2023-03-18T01:05:12.218Z,99879.13
2023-03-18T01:07:39.894Z,99867.34
2023-03-18T01:12:57.951Z,99870.47
2023-03-18T01:18:16.540Z,99868.25
2023-03-18T01:20:45.123Z,99877.31
2023-03-18T01:23:13.327Z,99875.13
2023-03-18T01:25:41.120Z,99875.06
2023-03-18T01:28:09.478Z,99875.81
2023-03-18T01:30:38.228Z,99874.94
2023-03-18T01:33:07.157Z,99870.94
2023-03-18T01:35:37.941Z,99879.41
2023-03-18T01:38:06.743Z,99863.13
2023-03-18T01:40:37.008Z,99870.31
2023-03-18T01:43:15.268Z,99866.28
2023-03-18T01:45:46.020Z,99865.19
2023-03-18T01:48:16.338Z,99859.84
2023-03-18T01:50:48.737Z,99866.78
2023-03-18T01:53:19.268Z,99868.66
2023-03-18T01:55:49.463Z,99868.38
2023-03-18T01:58:22.121Z,99863.84
2023-03-18T02:00:55.559Z,99877.44
2023-03-18T02:03:23.728Z,99867.59
2023-03-18T02:05:53.357Z,99862.50
2023-03-18T02:08:21.565Z,99866.28
2023-03-18T02:10:51.085Z,99863.63
2023-03-18T02:13:19.611Z,99864.66
2023-03-18T02:15:52.592Z,99867.09
2023-03-18T02:18:24.619Z,99854.25
2023-03-18T02:21:08.828Z,99847.00
2023-03-18T02:23:46.387Z,99862.00
2023-03-18T02:26:22.369Z,99858.53
2023-03-18T02:28:53.147Z,99854.00
2023-03-18T02:31:22.532Z,99858.53
2023-03-18T02:33:50.941Z,99863.06
2023-03-18T02:36:20.610Z,99859.59
2023-03-18T02:38:48.771Z,99864.97
2023-03-18T02:41:18.841Z,99869.50
2023-03-18T02:43:47.361Z,99872.66
2023-03-18T02:46:43.322Z,99875.84
2023-03-18T02:49:11.969Z,99876.09
2023-03-18T02:51:40.317Z,99865.13
2023-03-18T02:54:11.738Z,99872.00
2023-03-18T02:56:41.212Z,99875.47
2023-03-18T02:59:09.604Z,99870.13
2023-03-18T03:01:40.198Z,99865.06
2023-03-18T03:04:08.471Z,99862.88
2023-03-18T03:06:37.148Z,99882.09
2023-03-18T03:09:07.045Z,99877.25
2023-03-18T03:11:34.721Z,99874.03
2023-03-18T03:14:02.377Z,99882.03
2023-03-18T03:16:31.063Z,99887.38
2023-03-18T03:19:00.274Z,99883.66
2023-03-18T03:21:29.227Z,99877.50
2023-03-18T03:23:57.471Z,99883.06
2023-03-18T03:26:25.118Z,99884.94
2023-03-18T03:28:52.927Z,99882.53
2023-03-18T03:31:21.244Z,99895.03
2023-03-18T03:33:48.934Z,99896.09
2023-03-18T03:36:18.571Z,99899.78
2023-03-18T03:38:47.029Z,99894.78
2023-03-18T03:41:15.820Z,99904.91
2023-03-18T03:43:44.687Z,99898.19
2023-03-18T03:46:13.267Z,99904.81
2023-03-18T03:48:41.193Z,99909.56
2023-03-18T03:51:08.885Z,99905.81
2023-03-18T03:53:38.755Z,99909.50
2023-03-18T03:56:09.129Z,99899.84
2023-03-18T03:58:37.278Z,99899.53
2023-03-18T04:01:06.947Z,99904.03
2023-03-18T04:03:34.756Z,99892.91
2023-03-18T04:06:02.429Z,99911.00
2023-03-18T04:08:30.628Z,99906.16
2023-03-18T04:10:59.670Z,99908.25
2023-03-18T04:13:27.416Z,99901.81
2023-03-18T04:15:55.654Z,99902.63
2023-03-18T04:18:23.403Z,99910.03
2023-03-18T04:20:51.056Z,99915.84
2023-03-18T04:23:19.884Z,99917.13
2023-03-18T04:25:47.736Z,99909.16
2023-03-18T04:28:16.775Z,99904.88
2023-03-18T04:30:44.907Z,99905.34
2023-03-18T04:33:12.894Z,99911.75
2023-03-18T04:35:42.727Z,99911.44
2023-03-18T04:38:10.934Z,99904.09
2023-03-18T04:40:38.616Z,99926.03
2023-03-18T04:43:06.335Z,99928.63
2023-03-18T04:45:35.882Z,99924.34
2023-03-18T04:48:04.153Z,99922.41
2023-03-18T04:50:32.018Z,99926.31
2023-03-18T04:53:00.755Z,99924.38
2023-03-18T04:55:28.424Z,99931.00
2023-03-18T04:57:56.057Z,99937.59
2023-03-18T05:00:24.601Z,99925.84
2023-03-18T05:02:53.636Z,99943.41
2023-03-18T05:05:21.353Z,99937.50
2023-03-18T05:07:49.498Z,99938.81
2023-03-18T05:10:18.844Z,99952.59
2023-03-18T05:12:46.515Z,99950.44
2023-03-18T05:15:15.115Z,99942.91
2023-03-18T05:17:42.890Z,99954.84
2023-03-18T05:20:13.445Z,99947.34
2023-03-18T05:22:41.895Z,99938.22
2023-03-18T05:25:11.472Z,99939.53
2023-03-18T05:27:39.238Z,99937.50
2023-03-18T05:30:08.567Z,99937.41
2023-03-18T05:32:36.668Z,99931.53
2023-03-18T05:35:05.519Z,99943.19
2023-03-18T05:37:35.131Z,99938.94
2023-03-18T05:40:04.223Z,99943.94
2023-03-18T05:42:31.956Z,99946.34
2023-03-18T05:45:00.021Z,99945.31
2023-03-18T05:47:27.788Z,99943.94
2023-03-18T05:49:55.524Z,99948.44
2023-03-18T05:52:23.857Z,99962.56
2023-03-18T05:54:54.280Z,99952.72
2023-03-18T05:57:22.301Z,99958.06
2023-03-18T05:59:50.462Z,99956.19
2023-03-18T06:02:18.410Z,99953.28
2023-03-18T06:04:46.148Z,99966.59
2023-03-18T06:07:14.292Z,99957.56
2023-03-18T06:09:41.969Z,99956.75
2023-03-18T06:12:11.435Z,99956.50
2023-03-18T06:14:40.109Z,99955.69
2023-03-18T06:17:07.883Z,99964.47
2023-03-18T06:19:35.544Z,99961.03
2023-03-18T06:22:03.727Z,99963.69
2023-03-18T06:24:31.536Z,99964.47
2023-03-18T06:26:59.272Z,99971.91
2023-03-18T06:29:29.737Z,99979.63
2023-03-18T06:31:57.395Z,99985.19
2023-03-18T06:34:25.298Z,99966.97
2023-03-18T06:36:53.805Z,99986.00
2023-03-18T06:39:21.482Z,99981.75
2023-03-18T06:41:49.461Z,99977.22
2023-03-18T06:44:17.656Z,99986.25
2023-03-18T06:46:47.037Z,99984.16
2023-03-18T06:49:14.934Z,99987.41
2023-03-18T06:51:44.114Z,99986.34
2023-03-18T06:54:11.786Z,99988.19
2023-03-18T06:56:41.675Z,99989.81
2023-03-18T06:59:10.852Z,99996.50
2023-03-18T07:01:38.713Z,99988.84
2023-03-18T07:04:08.235Z,99995.31
2023-03-18T07:06:36.329Z,99989.03
2023-03-18T07:09:04.162Z,99989.38
2023-03-18T07:11:31.821Z,99992.94
2023-03-18T07:13:59.512Z,99992.22
2023-03-18T07:16:27.488Z,99993.44
2023-03-18T07:18:55.217Z,100002.69
2023-03-18T07:21:25.182Z,99990.56
2023-03-18T07:23:55.146Z,99997.09
2023-03-18T07:26:24.045Z,99993.25
2023-03-18T07:28:51.894Z,99995.72
2023-03-18T07:31:19.899Z,99997.91
2023-03-18T07:33:47.556Z,99999.84
2023-03-18T07:36:16.102Z,100004.94
2023-03-18T07:38:45.167Z,100005.47
2023-03-18T07:41:13.302Z,99997.50
2023-03-18T07:43:41.729Z,99999.13
2023-03-18T07:46:09.432Z,99997.50
2023-03-18T07:48:37.173Z,100002.25
2023-03-18T07:51:05.769Z,99994.28
2023-03-18T07:53:33.751Z,99998.00
2023-03-18T07:56:03.327Z,100004.13
2023-03-18T07:58:31.051Z,100013.00
2023-03-18T08:00:59.831Z,100007.66
2023-03-18T08:03:27.959Z,100015.19
2023-03-18T08:05:56.592Z,100010.97
2023-03-18T08:08:24.791Z,100019.03
2023-03-18T08:10:52.546Z,100014.34
2023-03-18T08:13:21.632Z,100010.94
2023-03-18T08:15:49.325Z,100004.09
2023-03-18T08:18:16.973Z,100007.63
2023-03-18T08:20:45.191Z,100016.16
2023-03-18T08:23:12.907Z,100019.38
2023-03-18T08:25:40.700Z,100022.03
2023-03-18T08:28:08.674Z,100017.28
2023-03-18T08:30:40.119Z,100017.03
2023-03-18T08:33:07.935Z,100025.84
2023-03-18T08:35:35.996Z,100020.28
2023-03-18T08:38:04.141Z,100028.03
2023-03-18T08:40:32.523Z,100023.25
2023-03-18T08:43:00.716Z,100028.56
2023-03-18T08:45:28.680Z,100024.88
2023-03-18T08:47:57.726Z,100028.09
2023-03-18T08:50:29.049Z,100018.22
2023-03-18T08:52:58.495Z,100019.63
2023-03-18T08:55:30.288Z,100015.97
2023-03-18T08:57:58.655Z,100015.97
2023-03-18T09:00:27.391Z,100009.53
2023-03-18T09:02:56.043Z,100021.06
2023-03-18T09:05:25.085Z,100007.41
2023-03-18T09:07:53.176Z,100028.31
2023-03-18T09:10:21.444Z,100028.63
2023-03-18T09:12:49.850Z,100029.97
2023-03-18T09:15:20.269Z,100034.25
2023-03-18T09:18:03.845Z,100024.16
2023-03-18T09:20:38.892Z,100024.72
2023-03-18T09:23:07.340Z,100021.56
2023-03-18T09:25:35.312Z,100023.97
2023-03-18T09:28:03.373Z,100018.38
2023-03-18T09:30:31.913Z,100022.69
2023-03-18T09:32:59.949Z,100018.94
2023-03-18T09:35:29.068Z,100014.16
2023-03-18T09:37:59.009Z,100010.19
2023-03-18T09:40:30.589Z,100015.81
2023-03-18T09:43:16.394Z,100015.81
2023-03-18T09:45:57.008Z,100017.47
2023-03-18T09:49:00.048Z,100022.78
2023-03-18T09:51:41.874Z,100031.84
2023-03-18T09:54:17.733Z,100028.31
2023-03-18T09:56:46.688Z,100041.16
2023-03-18T09:59:19.513Z,100040.59
2023-03-18T10:01:50.593Z,100036.56
2023-03-18T10:04:23.870Z,100051.44
2023-03-18T10:06:58.021Z,100050.91
2023-03-18T10:09:31.619Z,100052.75
2023-03-18T10:12:07.312Z,100057.28
2023-03-18T10:14:41.818Z,100066.34
2023-03-18T10:17:19.329Z,100042.78
2023-03-18T10:19:52.358Z,100056.16
2023-03-18T10:22:45.220Z,100063.59
2023-03-18T10:25:21.390Z,100059.56
2023-03-18T10:28:00.136Z,100072.66
2023-03-18T10:30:50.936Z,100071.06
2023-03-18T10:33:27.572Z,100073.72
2023-03-18T10:36:04.949Z,100082.78
2023-03-18T10:38:37.696Z,100083.00
2023-03-18T10:41:17.650Z,100083.84
2023-03-18T10:43:48.583Z,100076.88
2023-03-18T10:46:19.972Z,100074.19
2023-03-18T10:48:51.387Z,100068.63
2023-03-18T10:51:25.020Z,100074.78
2023-03-18T10:54:00.410Z,100081.16
2023-03-18T10:56:30.175Z,100076.66
2023-03-18T10:58:58.237Z,100083.84
2023-03-18T11:01:30.390Z,100084.94
2023-03-18T11:04:02.160Z,100083.31
2023-03-18T11:06:41.936Z,100083.06
2023-03-18T11:09:12.268Z,100083.66
2023-03-18T11:11:45.212Z,100073.31
2023-03-18T11:14:17.109Z,100078.94
2023-03-18T11:16:51.403Z,100080.84
2023-03-18T11:19:32.165Z,100070.25
2023-03-18T11:22:11.747Z,100073.28
2023-03-18T11:24:42.581Z,100078.69
2023-03-18T11:34:22.021Z,100075.59
2023-03-18T11:37:36.958Z,100065.03
2023-03-18T11:44:07.741Z,100062.06
2023-03-18T11:47:07.182Z,100054.63
2023-03-18T11:49:51.613Z,100060.06
2023-03-18T11:52:33.536Z,100074.31
2023-03-18T11:55:27.573Z,100064.22
2023-03-18T11:58:31.344Z,100060.81
2023-03-18T12:01:08.742Z,100063.00
2023-03-18T12:04:00.632Z,100064.34
2023-03-18T12:06:31.580Z,100058.75
2023-03-18T12:09:05.246Z,100052.09
2023-03-18T12:11:57.312Z,100049.38
2023-03-18T12:14:32.882Z,100052.59
2023-03-18T12:17:14.166Z,100040.28
2023-03-18T12:20:05.790Z,100035.22
2023-03-18T12:22:50.303Z,100030.16
2023-03-18T12:25:52.242Z,100036.34
2023-03-18T12:28:33.061Z,100031.56
2023-03-18T12:31:20.214Z,100031.06
2023-03-18T12:33:56.354Z,100019.38
2023-03-18T12:36:37.524Z,100031.72
2023-03-18T12:39:49.060Z,100030.16
2023-03-18T12:42:20.039Z,100036.06
2023-03-18T12:44:58.838Z,100032.91
2023-03-18T12:47:35.902Z,100039.88
2023-03-18T12:50:08.863Z,100028.38
2023-03-18T12:52:43.894Z,100005.88
2023-03-18T12:55:17.178Z,100017.41
2023-03-18T12:57:49.448Z,100012.59
2023-03-18T13:00:25.804Z,100013.13
2023-03-18T13:02:59.704Z,100011.25
2023-03-18T13:05:36.750Z,100009.94
2023-03-18T13:08:28.542Z,100005.09
2023-03-18T13:11:05.844Z,100007.00
2023-03-18T13:13:38.494Z,100007.28
2023-03-18T13:16:08.428Z,100013.16
2023-03-18T13:18:41.080Z,100005.94
2023-03-18T13:21:09.556Z,100007.00
2023-03-18T13:24:07.036Z,100014.53
2023-03-18T13:26:52.539Z,100018.00
2023-03-18T13:29:32.681Z,100018.53
2023-03-18T13:32:09.434Z,100023.38
2023-03-18T13:34:56.701Z,100020.69
2023-03-18T13:37:35.888Z,100021.50
2023-03-18T13:40:22.758Z,100017.44
2023-03-18T13:42:52.554Z,100020.13
2023-03-18T13:45:28.847Z,100009.13
2023-03-18T13:47:59.367Z,100002.94
2023-03-18T13:50:33.245Z,99999.75
2023-03-18T13:53:02.580Z,99998.13
2023-03-18T13:55:35.493Z,99991.44
2023-03-18T13:58:20.113Z,100006.22
2023-03-18T14:01:17.275Z,99997.91
2023-03-18T14:03:57.135Z,99989.03
2023-03-18T14:06:26.973Z,99994.38
2023-03-18T14:08:54.797Z,99986.06
2023-03-18T14:11:47.143Z,99990.13
2023-03-18T14:14:54.789Z,99986.91
2023-03-18T14:17:28.341Z,99989.34
2023-03-18T14:19:56.905Z,99983.69
2023-03-18T14:22:30.878Z,99991.22
2023-03-18T14:25:41.489Z,99986.66
2023-03-18T14:28:27.908Z,99979.44
2023-03-18T14:31:00.372Z,99984.22
2023-03-18T14:33:34.478Z,99973.50
2023-03-18T14:36:06.844Z,99983.44
2023-03-18T14:38:42.637Z,99969.50
2023-03-18T14:41:22.629Z,99974.59
2023-03-18T14:44:09.719Z,99968.72
2023-03-18T14:46:43.073Z,99968.13
2023-03-18T14:49:35.855Z,99958.25
2023-03-18T14:52:14.465Z,99962.53
2023-03-18T14:54:46.420Z,99956.38
2023-03-18T14:57:14.175Z,99953.69
2023-03-18T14:59:43.266Z,99951.53
2023-03-18T15:02:24.028Z,99944.28
2023-03-18T15:04:54.401Z,99955.56
2023-03-18T15:07:34.616Z,99948.31
2023-03-18T15:10:05.648Z,99949.69
2023-03-18T15:12:33.374Z,99946.19
2023-03-18T15:15:03.147Z,99938.69
2023-03-18T15:17:31.436Z,99935.47
2023-03-18T15:20:00.426Z,99944.03
2023-03-18T15:22:31.164Z,99945.13
2023-03-18T15:25:02.259Z,99929.31
2023-03-18T15:27:32.225Z,99924.78
2023-03-18T15:30:04.738Z,99919.94
2023-03-18T15:32:34.436Z,99914.31
2023-03-18T15:35:16.595Z,99916.72
2023-03-18T15:37:46.597Z,99918.31
2023-03-18T15:40:32.911Z,99911.66
2023-03-18T15:43:06.475Z,99912.44
2023-03-18T15:45:36.076Z,99914.03
2023-03-18T15:48:09.264Z,99915.66
2023-03-18T15:50:37.682Z,99907.09
2023-03-18T15:53:18.879Z,99916.19
2023-03-18T15:55:52.731Z,99915.13
2023-03-18T15:58:23.880Z,99912.72
2023-03-18T16:00:54.853Z,99912.16
2023-03-18T16:03:27.695Z,99910.06
2023-03-18T16:05:56.517Z,99905.22
2023-03-18T16:08:24.889Z,99915.41
2023-03-18T16:10:55.928Z,99907.34
2023-03-18T16:13:25.659Z,99919.91
2023-03-18T16:15:54.809Z,99905.72
2023-03-18T16:18:23.604Z,99902.00
2023-03-18T16:20:52.863Z,99906.53
2023-03-18T16:23:21.435Z,99906.53
2023-03-18T16:25:51.084Z,99898.47
2023-03-18T16:28:22.079Z,99898.75
2023-03-18T16:30:52.745Z,99894.19
2023-03-18T16:33:21.948Z,99895.81
2023-03-18T16:35:55.619Z,99898.47
2023-03-18T16:38:23.704Z,99888.84
2023-03-18T16:40:54.308Z,99887.25
2023-03-18T16:43:24.101Z,99896.88
2023-03-18T16:45:52.371Z,99891.00
2023-03-18T16:48:22.884Z,99892.59
2023-03-18T16:50:52.521Z,99897.16
2023-03-18T16:53:23.324Z,99911.06
2023-03-18T16:55:54.484Z,99918.88
2023-03-18T16:58:26.567Z,99921.00
2023-03-18T17:00:54.675Z,99923.16
2023-03-18T17:03:23.841Z,99929.59
2023-03-18T17:05:52.142Z,99940.31
2023-03-18T17:08:22.104Z,99933.31
2023-03-18T17:10:52.646Z,99941.91
2023-03-18T17:13:23.864Z,99947.28
2023-03-18T17:15:52.371Z,99951.56
2023-03-18T17:18:22.335Z,99964.16
2023-03-18T17:20:52.782Z,100020.69
2023-03-18T17:23:22.238Z,100044.19
2023-03-18T17:25:53.571Z,100033.72
2023-03-18T17:28:28.044Z,100055.91
2023-03-18T17:30:56.827Z,100055.56
2023-03-18T17:33:27.162Z,100057.88
2023-03-18T17:35:56.474Z,100057.31
2023-03-18T17:38:24.667Z,100058.78
2023-03-18T17:40:52.856Z,100053.84
2023-03-18T17:43:27.486Z,100067.09
2023-03-18T17:45:56.561Z,100064.28
2023-03-18T17:48:25.686Z,100059.41
2023-03-18T17:50:57.290Z,100059.03
2023-03-18T17:53:32.963Z,100053.88
2023-03-18T17:56:02.401Z,100035.81
2023-03-18T17:58:31.788Z,100051.84
2023-03-18T18:01:05.980Z,100061.13
2023-03-18T18:03:35.850Z,100059.47
2023-03-18T18:06:06.809Z,100046.56
2023-03-18T18:08:36.064Z,100055.16
2023-03-18T18:11:15.968Z,100060.97
2023-03-18T18:13:43.664Z,100062.00
2023-03-18T18:16:11.407Z,100062.47
2023-03-18T18:18:40.022Z,100064.59
2023-03-18T18:21:15.500Z,100067.53
2023-03-18T18:23:46.322Z,100062.69
2023-03-18T18:26:15.844Z,100058.63
2023-03-18T18:28:48.233Z,100059.47
2023-03-18T18:31:19.205Z,100054.63
2023-03-18T18:36:40.145Z,100045.00
2023-03-18T18:39:09.798Z,100042.00
2023-03-18T18:41:37.314Z,100045.28
2023-03-18T18:44:05.073Z,100047.94
2023-03-18T18:46:34.710Z,100049.28
2023-03-18T18:49:02.220Z,100045.88
2023-03-18T18:51:30.174Z,100047.94
2023-03-18T18:54:00.364Z,100049.03
2023-03-18T18:56:34.046Z,100052.75
2023-03-18T18:59:05.634Z,100050.56
2023-03-18T19:01:33.380Z,100058.56
2023-03-18T19:04:02.613Z,100058.03
2023-03-18T19:06:32.633Z,100060.69
2023-03-18T19:09:03.891Z,100068.69
2023-03-18T19:11:31.576Z,100057.72
2023-03-18T19:14:18.785Z,100059.03
2023-03-18T19:16:48.099Z,100058.78
2023-03-18T19:19:16.598Z,100062.75
2023-03-18T19:21:45.243Z,100070.75
2023-03-18T19:24:33.018Z,100072.63
2023-03-18T19:27:03.672Z,100065.66
2023-03-18T19:29:32.522Z,100068.56
2023-03-18T19:32:01.261Z,100067.78
2023-03-18T19:34:30.307Z,100068.84
2023-03-18T19:36:57.972Z,100063.72
2023-03-18T19:39:27.679Z,100058.38
2023-03-18T19:41:57.256Z,100060.03
2023-03-18T19:44:25.554Z,100057.41
2023-03-18T19:46:56.225Z,100061.13
2023-03-18T19:49:26.820Z,100057.09
2023-03-18T19:51:55.426Z,100057.34
2023-03-18T19:54:30.347Z,100056.22
2023-03-18T19:57:01.184Z,100065.28
2023-03-18T19:59:37.316Z,100063.13
2023-03-18T20:02:19.182Z,100058.25
2023-03-18T20:04:48.095Z,100064.16
2023-03-18T20:07:16.106Z,100066.84
2023-03-18T20:09:44.347Z,100065.22
2023-03-18T20:12:22.764Z,100062.06
2023-03-18T20:14:51.144Z,100072.19
2023-03-18T20:17:37.524Z,100067.06
2023-03-18T20:20:06.716Z,100083.31
2023-03-18T20:22:37.262Z,100088.03
2023-03-18T20:25:08.670Z,100103.53
2023-03-18T20:27:37.713Z,100107.25
2023-03-18T20:30:17.873Z,100118.44
2023-03-18T20:32:45.541Z,100114.66
2023-03-18T20:35:13.405Z,100119.41
2023-03-18T20:37:41.978Z,100117.25
2023-03-18T20:40:19.004Z,100117.69
2023-03-18T20:42:48.383Z,100117.94
2023-03-18T20:45:16.863Z,100118.66
2023-03-18T20:47:44.892Z,100119.16
2023-03-18T20:50:16.041Z,100104.69
2023-03-18T20:52:44.969Z,100099.28
2023-03-18T20:55:25.751Z,100105.66
2023-03-18T20:57:55.387Z,100104.53
2023-03-18T21:00:24.149Z,100103.25
2023-03-18T21:02:54.228Z,100103.50
2023-03-18T21:05:22.667Z,100112.78
2023-03-18T21:07:50.486Z,100114.09
2023-03-18T21:10:20.317Z,100116.16
2023-03-18T21:12:48.585Z,100118.28
2023-03-18T21:15:21.702Z,100113.19
2023-03-18T21:17:50.046Z,100113.94
2023-03-18T21:20:22.376Z,100113.94
2023-03-18T21:22:51.993Z,100111.47
2023-03-18T21:25:21.825Z,100111.97
2023-03-18T21:27:50.105Z,100111.41
2023-03-18T21:31:09.790Z,100119.41
2023-03-18T21:33:39.285Z,100122.31
2023-03-18T21:36:07.794Z,100115.38
2023-03-18T21:38:36.221Z,100113.75
2023-03-18T21:41:04.283Z,100119.31
2023-03-18T21:43:34.692Z,100116.44
2023-03-18T21:46:02.903Z,100118.25
2023-03-18T21:48:31.541Z,100113.75
2023-03-18T21:51:00.682Z,100107.59
2023-03-18T21:53:29.796Z,100107.94
2023-03-18T21:55:57.559Z,100107.94
2023-03-18T21:58:27.101Z,100111.97
2023-03-18T22:00:56.762Z,100114.41
2023-03-18T22:03:25.159Z,100104.38
2023-03-18T22:05:54.426Z,100099.03
2023-03-18T22:08:24.380Z,100109.94
2023-03-18T22:10:53.033Z,100097.59
2023-03-18T22:13:22.804Z,100112.28
2023-03-18T22:15:51.769Z,100095.75
2023-03-18T22:18:20.016Z,100096.81
2023-03-18T22:20:50.359Z,100100.53
2023-03-18T22:23:20.948Z,100097.59
2023-03-18T22:25:51.740Z,100093.56
2023-03-18T22:28:19.684Z,100095.66
2023-03-18T22:30:52.131Z,100101.00
2023-03-18T22:33:24.951Z,100099.38
2023-03-18T22:35:53.467Z,100092.44
2023-03-18T22:38:23.779Z,100090.34
2023-03-18T22:40:54.991Z,100089.78
2023-03-18T22:43:31.694Z,100092.44
2023-03-18T22:46:01.186Z,100088.41
2023-03-18T22:48:29.132Z,100089.69
2023-03-18T22:50:59.965Z,100093.97
2023-03-18T22:53:30.557Z,100096.06
2023-03-18T22:56:05.484Z,100093.38
2023-03-18T22:58:33.232Z,100091.22
2023-03-18T23:01:00.908Z,100095.16
2023-03-18T23:03:31.067Z,100095.97
2023-03-18T23:06:00.099Z,100097.03
2023-03-18T23:08:28.269Z,100092.75
2023-03-18T23:11:00.301Z,100094.38
2023-03-18T23:13:31.195Z,100099.69
2023-03-18T23:15:59.147Z,100095.41
2023-03-18T23:18:27.521Z,100104.47
2023-03-18T23:20:55.437Z,100099.34
2023-03-18T23:23:23.428Z,100102.03
2023-03-18T23:25:52.750Z,100093.72
2023-03-18T23:28:20.704Z,100101.22
2023-03-18T23:30:52.478Z,100093.72
2023-03-18T23:33:21.183Z,100086.13
2023-03-18T23:35:49.286Z,100108.09
2023-03-18T23:38:17.154Z,100106.44
2023-03-18T23:40:44.979Z,100107.75
2023-03-18T23:43:12.661Z,100112.28
2023-03-18T23:45:40.558Z,100110.63
2023-03-18T23:48:10.219Z,100106.16
2023-03-18T23:50:37.690Z,100110.16
2023-03-18T23:53:05.663Z,100112.28
2023-03-18T23:55:35.185Z,100114.94
2023-03-18T23:58:13.401Z,100110.63
